sensor_id;sensor_type;location;lat;lon;timestamp;P1;durP1;ratioP1;P2;durP2;ratioP2
43160;SDS011;40968;52.342;5.528;2023-08-07T00:02:21;14.02;;;2.65;;
43160;SDS011;40968;52.342;5.528;2023-08-07T00:04:48;9.35;;;2.20;;
43160;SDS011;40968;52.342;5.528;2023-08-07T00:07:14;9.52;;;2.30;;
43160;SDS011;40968;52.342;5.528;2023-08-07T00:09:42;15.23;;;3.10;;
43160;SDS011;40968;52.342;5.528;2023-08-07T00:12:09;11.35;;;2.75;;
43160;SDS011;40968;52.342;5.528;2023-08-07T00:14:36;10.77;;;2.67;;
43160;SDS011;40968;52.342;5.528;2023-08-07T00:17:02;16.13;;;2.30;;
43160;SDS011;40968;52.342;5.528;2023-08-07T00:19:30;9.95;;;2.35;;
43160;SDS011;40968;52.342;5.528;2023-08-07T00:21:57;11.98;;;2.53;;
43160;SDS011;40968;52.342;5.528;2023-08-07T00:24:24;10.80;;;2.47;;
43160;SDS011;40968;52.342;5.528;2023-08-07T00:26:52;9.95;;;2.65;;
43160;SDS011;40968;52.342;5.528;2023-08-07T00:29:18;9.07;;;2.70;;
43160;SDS011;40968;52.342;5.528;2023-08-07T00:31:45;23.02;;;3.25;;
43160;SDS011;40968;52.342;5.528;2023-08-07T00:34:11;16.85;;;3.05;;
43160;SDS011;40968;52.342;5.528;2023-08-07T00:36:38;10.95;;;2.97;;
43160;SDS011;40968;52.342;5.528;2023-08-07T00:39:05;13.07;;;2.92;;
43160;SDS011;40968;52.342;5.528;2023-08-07T00:41:32;20.05;;;3.67;;
43160;SDS011;40968;52.342;5.528;2023-08-07T00:44:00;19.52;;;3.60;;
43160;SDS011;40968;52.342;5.528;2023-08-07T00:46:27;13.40;;;3.25;;
43160;SDS011;40968;52.342;5.528;2023-08-07T00:48:55;17.73;;;2.83;;
43160;SDS011;40968;52.342;5.528;2023-08-07T00:51:22;16.80;;;3.60;;
43160;SDS011;40968;52.342;5.528;2023-08-07T00:53:49;12.75;;;3.58;;
43160;SDS011;40968;52.342;5.528;2023-08-07T00:56:17;13.75;;;3.20;;
43160;SDS011;40968;52.342;5.528;2023-08-07T00:58:44;15.52;;;3.33;;
43160;SDS011;40968;52.342;5.528;2023-08-07T01:01:12;15.90;;;3.15;;
43160;SDS011;40968;52.342;5.528;2023-08-07T01:03:39;12.18;;;3.58;;
43160;SDS011;40968;52.342;5.528;2023-08-07T01:06:06;16.52;;;3.85;;
43160;SDS011;40968;52.342;5.528;2023-08-07T01:08:33;16.13;;;3.17;;
43160;SDS011;40968;52.342;5.528;2023-08-07T01:11:07;19.52;;;3.38;;
43160;SDS011;40968;52.342;5.528;2023-08-07T01:13:47;10.35;;;2.80;;
43160;SDS011;40968;52.342;5.528;2023-08-07T01:16:25;19.25;;;4.32;;
43160;SDS011;40968;52.342;5.528;2023-08-07T01:18:55;16.67;;;2.63;;
43160;SDS011;40968;52.342;5.528;2023-08-07T01:21:23;19.42;;;3.28;;
43160;SDS011;40968;52.342;5.528;2023-08-07T01:23:51;20.60;;;2.80;;
43160;SDS011;40968;52.342;5.528;2023-08-07T01:26:18;14.70;;;3.10;;
43160;SDS011;40968;52.342;5.528;2023-08-07T01:28:46;14.10;;;2.90;;
43160;SDS011;40968;52.342;5.528;2023-08-07T01:31:20;8.23;;;2.65;;
43160;SDS011;40968;52.342;5.528;2023-08-07T01:33:51;8.90;;;2.08;;
43160;SDS011;40968;52.342;5.528;2023-08-07T01:36:23;9.88;;;2.58;;
43160;SDS011;40968;52.342;5.528;2023-08-07T01:38:54;9.68;;;2.28;;
43160;SDS011;40968;52.342;5.528;2023-08-07T01:41:23;14.10;;;2.92;;
43160;SDS011;40968;52.342;5.528;2023-08-07T01:43:50;12.32;;;1.92;;
43160;SDS011;40968;52.342;5.528;2023-08-07T01:46:17;12.63;;;2.30;;
43160;SDS011;40968;52.342;5.528;2023-08-07T01:48:43;10.35;;;2.55;;
43160;SDS011;40968;52.342;5.528;2023-08-07T01:51:10;12.93;;;2.70;;
43160;SDS011;40968;52.342;5.528;2023-08-07T01:53:37;21.02;;;2.53;;
43160;SDS011;40968;52.342;5.528;2023-08-07T01:56:05;14.15;;;2.72;;
43160;SDS011;40968;52.342;5.528;2023-08-07T01:58:31;9.88;;;2.60;;
43160;SDS011;40968;52.342;5.528;2023-08-07T02:00:58;14.13;;;2.53;;
43160;SDS011;40968;52.342;5.528;2023-08-07T02:03:25;13.55;;;3.13;;
43160;SDS011;40968;52.342;5.528;2023-08-07T02:05:51;13.18;;;2.72;;
43160;SDS011;40968;52.342;5.528;2023-08-07T02:08:18;12.25;;;2.53;;
43160;SDS011;40968;52.342;5.528;2023-08-07T02:10:45;25.60;;;3.20;;
43160;SDS011;40968;52.342;5.528;2023-08-07T02:13:13;11.68;;;2.53;;
43160;SDS011;40968;52.342;5.528;2023-08-07T02:15:40;16.23;;;2.42;;
43160;SDS011;40968;52.342;5.528;2023-08-07T02:18:08;10.02;;;2.28;;
43160;SDS011;40968;52.342;5.528;2023-08-07T02:20:34;16.92;;;3.10;;
43160;SDS011;40968;52.342;5.528;2023-08-07T02:23:01;14.75;;;2.75;;
43160;SDS011;40968;52.342;5.528;2023-08-07T02:25:28;14.05;;;2.97;;
43160;SDS011;40968;52.342;5.528;2023-08-07T02:27:54;19.17;;;3.22;;
43160;SDS011;40968;52.342;5.528;2023-08-07T02:30:22;11.85;;;2.88;;
43160;SDS011;40968;52.342;5.528;2023-08-07T02:32:49;11.38;;;2.60;;
43160;SDS011;40968;52.342;5.528;2023-08-07T02:35:15;13.40;;;3.20;;
43160;SDS011;40968;52.342;5.528;2023-08-07T02:37:42;16.42;;;3.40;;
43160;SDS011;40968;52.342;5.528;2023-08-07T02:40:09;12.93;;;2.85;;
43160;SDS011;40968;52.342;5.528;2023-08-07T02:42:40;19.23;;;3.88;;
43160;SDS011;40968;52.342;5.528;2023-08-07T02:45:07;13.68;;;2.80;;
43160;SDS011;40968;52.342;5.528;2023-08-07T02:47:35;13.82;;;3.15;;
43160;SDS011;40968;52.342;5.528;2023-08-07T02:50:02;14.02;;;3.05;;
43160;SDS011;40968;52.342;5.528;2023-08-07T02:52:29;14.55;;;3.05;;
43160;SDS011;40968;52.342;5.528;2023-08-07T02:54:56;8.65;;;2.75;;
43160;SDS011;40968;52.342;5.528;2023-08-07T02:57:23;15.73;;;3.78;;
43160;SDS011;40968;52.342;5.528;2023-08-07T02:59:50;13.05;;;3.35;;
43160;SDS011;40968;52.342;5.528;2023-08-07T03:02:16;11.32;;;3.20;;
43160;SDS011;40968;52.342;5.528;2023-08-07T03:04:44;14.45;;;3.53;;
43160;SDS011;40968;52.342;5.528;2023-08-07T03:07:11;13.20;;;3.20;;
43160;SDS011;40968;52.342;5.528;2023-08-07T03:09:38;17.60;;;3.03;;
43160;SDS011;40968;52.342;5.528;2023-08-07T03:12:05;17.85;;;3.97;;
43160;SDS011;40968;52.342;5.528;2023-08-07T03:14:32;10.90;;;2.70;;
43160;SDS011;40968;52.342;5.528;2023-08-07T03:16:58;11.60;;;2.72;;
43160;SDS011;40968;52.342;5.528;2023-08-07T03:19:25;11.63;;;2.80;;
43160;SDS011;40968;52.342;5.528;2023-08-07T03:21:53;15.00;;;3.00;;
43160;SDS011;40968;52.342;5.528;2023-08-07T03:24:19;12.10;;;3.20;;
43160;SDS011;40968;52.342;5.528;2023-08-07T03:26:46;16.13;;;2.92;;
43160;SDS011;40968;52.342;5.528;2023-08-07T03:29:14;18.50;;;3.65;;
43160;SDS011;40968;52.342;5.528;2023-08-07T03:31:40;11.77;;;3.20;;
43160;SDS011;40968;52.342;5.528;2023-08-07T03:34:07;16.48;;;3.50;;
43160;SDS011;40968;52.342;5.528;2023-08-07T03:36:34;12.90;;;3.67;;
43160;SDS011;40968;52.342;5.528;2023-08-07T03:39:02;15.93;;;3.63;;
43160;SDS011;40968;52.342;5.528;2023-08-07T03:41:28;21.38;;;3.55;;
43160;SDS011;40968;52.342;5.528;2023-08-07T03:43:55;12.60;;;3.15;;
43160;SDS011;40968;52.342;5.528;2023-08-07T03:46:22;15.23;;;4.05;;
43160;SDS011;40968;52.342;5.528;2023-08-07T03:48:48;18.48;;;3.20;;
43160;SDS011;40968;52.342;5.528;2023-08-07T03:51:15;21.60;;;3.75;;
43160;SDS011;40968;52.342;5.528;2023-08-07T03:53:42;12.18;;;4.30;;
43160;SDS011;40968;52.342;5.528;2023-08-07T03:56:10;14.10;;;3.72;;
43160;SDS011;40968;52.342;5.528;2023-08-07T03:58:36;30.45;;;4.65;;
43160;SDS011;40968;52.342;5.528;2023-08-07T04:01:03;18.23;;;4.13;;
43160;SDS011;40968;52.342;5.528;2023-08-07T04:03:30;19.88;;;4.28;;
43160;SDS011;40968;52.342;5.528;2023-08-07T04:05:56;19.58;;;4.50;;
43160;SDS011;40968;52.342;5.528;2023-08-07T04:08:25;18.85;;;4.63;;
43160;SDS011;40968;52.342;5.528;2023-08-07T04:10:58;18.02;;;4.55;;
43160;SDS011;40968;52.342;5.528;2023-08-07T04:13:28;17.92;;;4.07;;
43160;SDS011;40968;52.342;5.528;2023-08-07T04:15:55;26.60;;;5.63;;
43160;SDS011;40968;52.342;5.528;2023-08-07T04:18:22;17.70;;;4.38;;
43160;SDS011;40968;52.342;5.528;2023-08-07T04:20:49;17.20;;;4.53;;
43160;SDS011;40968;52.342;5.528;2023-08-07T04:23:17;22.73;;;4.60;;
43160;SDS011;40968;52.342;5.528;2023-08-07T04:25:44;10.55;;;3.72;;
43160;SDS011;40968;52.342;5.528;2023-08-07T04:28:11;23.17;;;4.97;;
43160;SDS011;40968;52.342;5.528;2023-08-07T04:30:39;27.02;;;4.60;;
43160;SDS011;40968;52.342;5.528;2023-08-07T04:33:07;23.05;;;4.38;;
43160;SDS011;40968;52.342;5.528;2023-08-07T04:35:33;22.42;;;4.50;;
43160;SDS011;40968;52.342;5.528;2023-08-07T04:38:00;17.17;;;4.20;;
43160;SDS011;40968;52.342;5.528;2023-08-07T04:40:27;21.52;;;4.30;;
43160;SDS011;40968;52.342;5.528;2023-08-07T04:42:54;15.15;;;3.80;;
43160;SDS011;40968;52.342;5.528;2023-08-07T04:45:21;13.45;;;3.88;;
43160;SDS011;40968;52.342;5.528;2023-08-07T04:47:49;11.07;;;3.88;;
43160;SDS011;40968;52.342;5.528;2023-08-07T04:50:16;20.45;;;3.72;;
43160;SDS011;40968;52.342;5.528;2023-08-07T04:52:42;17.92;;;3.63;;
43160;SDS011;40968;52.342;5.528;2023-08-07T04:55:09;15.93;;;3.83;;
43160;SDS011;40968;52.342;5.528;2023-08-07T04:57:36;32.80;;;4.95;;
43160;SDS011;40968;52.342;5.528;2023-08-07T05:00:03;32.30;;;5.25;;
43160;SDS011;40968;52.342;5.528;2023-08-07T05:02:30;20.08;;;4.60;;
43160;SDS011;40968;52.342;5.528;2023-08-07T05:04:59;33.97;;;5.30;;
43160;SDS011;40968;52.342;5.528;2023-08-07T05:07:25;26.95;;;4.78;;
43160;SDS011;40968;52.342;5.528;2023-08-07T05:09:52;17.92;;;4.35;;
43160;SDS011;40968;52.342;5.528;2023-08-07T05:12:18;20.05;;;5.15;;
43160;SDS011;40968;52.342;5.528;2023-08-07T05:14:45;21.70;;;4.55;;
43160;SDS011;40968;52.342;5.528;2023-08-07T05:17:12;16.98;;;4.38;;
43160;SDS011;40968;52.342;5.528;2023-08-07T05:19:39;21.05;;;4.40;;
43160;SDS011;40968;52.342;5.528;2023-08-07T05:22:07;28.88;;;4.68;;
43160;SDS011;40968;52.342;5.528;2023-08-07T05:24:33;11.82;;;4.10;;
43160;SDS011;40968;52.342;5.528;2023-08-07T05:27:04;24.73;;;5.10;;
43160;SDS011;40968;52.342;5.528;2023-08-07T05:29:33;19.80;;;4.30;;
43160;SDS011;40968;52.342;5.528;2023-08-07T05:31:59;15.38;;;4.57;;
43160;SDS011;40968;52.342;5.528;2023-08-07T05:34:27;19.80;;;4.65;;
43160;SDS011;40968;52.342;5.528;2023-08-07T05:36:53;27.50;;;4.43;;
43160;SDS011;40968;52.342;5.528;2023-08-07T05:39:21;23.95;;;4.70;;
43160;SDS011;40968;52.342;5.528;2023-08-07T05:41:48;23.85;;;4.95;;
43160;SDS011;40968;52.342;5.528;2023-08-07T05:44:14;14.90;;;4.13;;
43160;SDS011;40968;52.342;5.528;2023-08-07T05:46:41;20.88;;;4.28;;
43160;SDS011;40968;52.342;5.528;2023-08-07T05:49:08;22.10;;;5.25;;
43160;SDS011;40968;52.342;5.528;2023-08-07T05:51:34;20.73;;;4.20;;
43160;SDS011;40968;52.342;5.528;2023-08-07T05:54:01;27.80;;;5.35;;
43160;SDS011;40968;52.342;5.528;2023-08-07T05:56:29;37.65;;;5.00;;
43160;SDS011;40968;52.342;5.528;2023-08-07T05:58:55;20.48;;;4.22;;
43160;SDS011;40968;52.342;5.528;2023-08-07T06:01:22;19.05;;;4.45;;
43160;SDS011;40968;52.342;5.528;2023-08-07T06:03:54;18.60;;;4.82;;
43160;SDS011;40968;52.342;5.528;2023-08-07T06:06:21;14.57;;;3.92;;
43160;SDS011;40968;52.342;5.528;2023-08-07T06:08:48;21.65;;;4.05;;
43160;SDS011;40968;52.342;5.528;2023-08-07T06:11:14;19.13;;;4.18;;
43160;SDS011;40968;52.342;5.528;2023-08-07T06:13:42;19.83;;;3.78;;
43160;SDS011;40968;52.342;5.528;2023-08-07T06:16:09;13.95;;;4.00;;
43160;SDS011;40968;52.342;5.528;2023-08-07T06:18:36;15.23;;;3.90;;
43160;SDS011;40968;52.342;5.528;2023-08-07T06:21:03;15.80;;;3.90;;
43160;SDS011;40968;52.342;5.528;2023-08-07T06:23:31;12.23;;;3.55;;
43160;SDS011;40968;52.342;5.528;2023-08-07T06:25:58;16.92;;;3.60;;
43160;SDS011;40968;52.342;5.528;2023-08-07T06:28:29;21.80;;;3.47;;
43160;SDS011;40968;52.342;5.528;2023-08-07T06:31:01;14.98;;;3.60;;
43160;SDS011;40968;52.342;5.528;2023-08-07T06:33:28;11.07;;;3.13;;
43160;SDS011;40968;52.342;5.528;2023-08-07T06:35:54;20.67;;;4.00;;
43160;SDS011;40968;52.342;5.528;2023-08-07T06:38:21;10.48;;;3.28;;
43160;SDS011;40968;52.342;5.528;2023-08-07T06:40:48;16.67;;;3.75;;
43160;SDS011;40968;52.342;5.528;2023-08-07T06:43:14;22.98;;;3.75;;
43160;SDS011;40968;52.342;5.528;2023-08-07T06:45:41;18.15;;;3.65;;
43160;SDS011;40968;52.342;5.528;2023-08-07T06:48:09;17.75;;;3.88;;
43160;SDS011;40968;52.342;5.528;2023-08-07T06:50:35;17.60;;;3.28;;
43160;SDS011;40968;52.342;5.528;2023-08-07T06:53:02;16.73;;;3.65;;
43160;SDS011;40968;52.342;5.528;2023-08-07T06:55:28;16.15;;;3.58;;
43160;SDS011;40968;52.342;5.528;2023-08-07T06:57:55;17.92;;;3.72;;
43160;SDS011;40968;52.342;5.528;2023-08-07T07:00:22;18.60;;;4.10;;
43160;SDS011;40968;52.342;5.528;2023-08-07T07:02:48;18.55;;;3.20;;
43160;SDS011;40968;52.342;5.528;2023-08-07T07:05:16;13.90;;;3.60;;
43160;SDS011;40968;52.342;5.528;2023-08-07T07:07:44;18.90;;;3.78;;
43160;SDS011;40968;52.342;5.528;2023-08-07T07:10:11;18.88;;;5.13;;
43160;SDS011;40968;52.342;5.528;2023-08-07T07:12:38;11.65;;;3.40;;
43160;SDS011;40968;52.342;5.528;2023-08-07T07:15:05;20.92;;;3.47;;
43160;SDS011;40968;52.342;5.528;2023-08-07T07:17:32;13.32;;;3.35;;
43160;SDS011;40968;52.342;5.528;2023-08-07T07:19:58;13.30;;;4.15;;
43160;SDS011;40968;52.342;5.528;2023-08-07T07:22:26;11.65;;;3.20;;
43160;SDS011;40968;52.342;5.528;2023-08-07T07:24:53;17.25;;;4.20;;
43160;SDS011;40968;52.342;5.528;2023-08-07T07:27:20;11.45;;;3.65;;
43160;SDS011;40968;52.342;5.528;2023-08-07T07:29:47;13.75;;;3.03;;
43160;SDS011;40968;52.342;5.528;2023-08-07T07:32:14;17.52;;;3.42;;
43160;SDS011;40968;52.342;5.528;2023-08-07T07:34:40;25.63;;;4.18;;
43160;SDS011;40968;52.342;5.528;2023-08-07T07:37:07;20.60;;;4.35;;
43160;SDS011;40968;52.342;5.528;2023-08-07T07:39:36;16.45;;;4.20;;
43160;SDS011;40968;52.342;5.528;2023-08-07T07:42:03;26.35;;;4.57;;
43160;SDS011;40968;52.342;5.528;2023-08-07T07:44:30;20.08;;;4.25;;
43160;SDS011;40968;52.342;5.528;2023-08-07T07:46:58;11.27;;;3.58;;
43160;SDS011;40968;52.342;5.528;2023-08-07T07:49:25;18.38;;;3.90;;
43160;SDS011;40968;52.342;5.528;2023-08-07T07:51:51;16.05;;;3.42;;
43160;SDS011;40968;52.342;5.528;2023-08-07T07:54:18;12.93;;;3.22;;
43160;SDS011;40968;52.342;5.528;2023-08-07T07:56:46;23.88;;;3.35;;
43160;SDS011;40968;52.342;5.528;2023-08-07T07:59:13;14.55;;;2.83;;
43160;SDS011;40968;52.342;5.528;2023-08-07T08:01:39;10.70;;;3.00;;
43160;SDS011;40968;52.342;5.528;2023-08-07T08:04:06;14.55;;;2.83;;
43160;SDS011;40968;52.342;5.528;2023-08-07T08:06:35;10.13;;;3.05;;
43160;SDS011;40968;52.342;5.528;2023-08-07T08:09:01;7.78;;;2.90;;
43160;SDS011;40968;52.342;5.528;2023-08-07T08:11:30;13.20;;;3.05;;
43160;SDS011;40968;52.342;5.528;2023-08-07T08:13:58;17.75;;;3.90;;
43160;SDS011;40968;52.342;5.528;2023-08-07T08:16:24;12.93;;;2.80;;
43160;SDS011;40968;52.342;5.528;2023-08-07T08:18:51;21.83;;;3.10;;
43160;SDS011;40968;52.342;5.528;2023-08-07T08:21:17;16.27;;;2.55;;
43160;SDS011;40968;52.342;5.528;2023-08-07T08:23:44;9.88;;;2.50;;
43160;SDS011;40968;52.342;5.528;2023-08-07T08:26:11;11.73;;;2.78;;
43160;SDS011;40968;52.342;5.528;2023-08-07T08:28:37;7.97;;;2.40;;
43160;SDS011;40968;52.342;5.528;2023-08-07T08:31:06;8.85;;;2.17;;
43160;SDS011;40968;52.342;5.528;2023-08-07T08:33:33;12.57;;;2.25;;
43160;SDS011;40968;52.342;5.528;2023-08-07T08:36:00;8.95;;;2.58;;
43160;SDS011;40968;52.342;5.528;2023-08-07T08:38:27;5.28;;;1.65;;
43160;SDS011;40968;52.342;5.528;2023-08-07T08:40:57;8.10;;;2.88;;
43160;SDS011;40968;52.342;5.528;2023-08-07T08:43:28;6.15;;;2.30;;
43160;SDS011;40968;52.342;5.528;2023-08-07T08:46:00;13.77;;;2.40;;
43160;SDS011;40968;52.342;5.528;2023-08-07T08:48:29;7.95;;;2.47;;
43160;SDS011;40968;52.342;5.528;2023-08-07T08:50:57;8.20;;;2.20;;
43160;SDS011;40968;52.342;5.528;2023-08-07T08:53:24;6.40;;;2.13;;
43160;SDS011;40968;52.342;5.528;2023-08-07T08:55:51;5.65;;;2.03;;
43160;SDS011;40968;52.342;5.528;2023-08-07T08:58:18;7.45;;;1.85;;
43160;SDS011;40968;52.342;5.528;2023-08-07T09:00:46;8.75;;;2.00;;
43160;SDS011;40968;52.342;5.528;2023-08-07T09:03:14;8.40;;;1.83;;
43160;SDS011;40968;52.342;5.528;2023-08-07T09:05:42;16.13;;;2.17;;
43160;SDS011;40968;52.342;5.528;2023-08-07T09:08:09;10.45;;;2.00;;
43160;SDS011;40968;52.342;5.528;2023-08-07T09:10:37;5.65;;;2.15;;
43160;SDS011;40968;52.342;5.528;2023-08-07T09:13:06;6.03;;;1.85;;
43160;SDS011;40968;52.342;5.528;2023-08-07T09:15:40;7.95;;;1.88;;
43160;SDS011;40968;52.342;5.528;2023-08-07T09:18:12;5.38;;;2.05;;
43160;SDS011;40968;52.342;5.528;2023-08-07T09:20:39;7.97;;;2.10;;
43160;SDS011;40968;52.342;5.528;2023-08-07T09:23:08;8.65;;;1.98;;
43160;SDS011;40968;52.342;5.528;2023-08-07T09:25:35;7.47;;;2.22;;
43160;SDS011;40968;52.342;5.528;2023-08-07T09:28:02;18.75;;;2.42;;
43160;SDS011;40968;52.342;5.528;2023-08-07T09:30:30;10.52;;;2.50;;
43160;SDS011;40968;52.342;5.528;2023-08-07T09:32:57;10.88;;;2.17;;
43160;SDS011;40968;52.342;5.528;2023-08-07T09:35:24;8.98;;;2.08;;
43160;SDS011;40968;52.342;5.528;2023-08-07T09:37:51;7.55;;;2.47;;
43160;SDS011;40968;52.342;5.528;2023-08-07T09:40:19;13.93;;;2.33;;
43160;SDS011;40968;52.342;5.528;2023-08-07T09:42:49;11.90;;;2.60;;
43160;SDS011;40968;52.342;5.528;2023-08-07T09:45:19;9.02;;;2.15;;
43160;SDS011;40968;52.342;5.528;2023-08-07T09:47:49;14.55;;;2.33;;
43160;SDS011;40968;52.342;5.528;2023-08-07T09:50:24;6.68;;;1.77;;
43160;SDS011;40968;52.342;5.528;2023-08-07T09:52:52;9.23;;;2.00;;
43160;SDS011;40968;52.342;5.528;2023-08-07T09:55:20;8.50;;;2.10;;
43160;SDS011;40968;52.342;5.528;2023-08-07T09:57:47;6.65;;;1.77;;
43160;SDS011;40968;52.342;5.528;2023-08-07T10:00:14;11.23;;;2.40;;
43160;SDS011;40968;52.342;5.528;2023-08-07T10:02:44;13.50;;;2.25;;
43160;SDS011;40968;52.342;5.528;2023-08-07T10:05:12;12.95;;;2.67;;
43160;SDS011;40968;52.342;5.528;2023-08-07T10:07:39;8.68;;;2.00;;
43160;SDS011;40968;52.342;5.528;2023-08-07T10:10:07;12.30;;;2.78;;
43160;SDS011;40968;52.342;5.528;2023-08-07T10:12:36;10.07;;;2.75;;
43160;SDS011;40968;52.342;5.528;2023-08-07T10:15:03;11.90;;;2.53;;
43160;SDS011;40968;52.342;5.528;2023-08-07T10:17:30;8.52;;;1.98;;
43160;SDS011;40968;52.342;5.528;2023-08-07T10:19:58;16.20;;;2.63;;
43160;SDS011;40968;52.342;5.528;2023-08-07T10:22:25;12.18;;;2.38;;
43160;SDS011;40968;52.342;5.528;2023-08-07T10:24:53;13.98;;;2.72;;
43160;SDS011;40968;52.342;5.528;2023-08-07T10:27:22;8.45;;;2.30;;
43160;SDS011;40968;52.342;5.528;2023-08-07T10:29:53;7.82;;;2.22;;
43160;SDS011;40968;52.342;5.528;2023-08-07T10:32:23;12.60;;;2.53;;
43160;SDS011;40968;52.342;5.528;2023-08-07T10:34:51;16.17;;;2.50;;
43160;SDS011;40968;52.342;5.528;2023-08-07T10:37:31;13.60;;;2.13;;
43160;SDS011;40968;52.342;5.528;2023-08-07T10:42:32;8.55;;;2.40;;
43160;SDS011;40968;52.342;5.528;2023-08-07T10:45:17;8.77;;;1.90;;
43160;SDS011;40968;52.342;5.528;2023-08-07T10:47:55;8.38;;;2.13;;
43160;SDS011;40968;52.342;5.528;2023-08-07T10:50:27;12.13;;;2.40;;
43160;SDS011;40968;52.342;5.528;2023-08-07T10:52:54;6.40;;;2.13;;
43160;SDS011;40968;52.342;5.528;2023-08-07T10:55:20;15.13;;;2.50;;
43160;SDS011;40968;52.342;5.528;2023-08-07T10:57:48;11.55;;;2.50;;
43160;SDS011;40968;52.342;5.528;2023-08-07T11:00:15;7.82;;;2.40;;
43160;SDS011;40968;52.342;5.528;2023-08-07T11:02:47;21.30;;;2.40;;
43160;SDS011;40968;52.342;5.528;2023-08-07T11:05:15;10.85;;;3.03;;
43160;SDS011;40968;52.342;5.528;2023-08-07T11:07:43;15.07;;;2.72;;
43160;SDS011;40968;52.342;5.528;2023-08-07T11:10:12;14.23;;;2.70;;
43160;SDS011;40968;52.342;5.528;2023-08-07T11:12:41;8.38;;;2.47;;
43160;SDS011;40968;52.342;5.528;2023-08-07T11:15:11;14.60;;;2.95;;
43160;SDS011;40968;52.342;5.528;2023-08-07T11:17:40;10.68;;;2.40;;
43160;SDS011;40968;52.342;5.528;2023-08-07T11:20:08;9.48;;;2.47;;
43160;SDS011;40968;52.342;5.528;2023-08-07T11:22:37;10.43;;;2.78;;
43160;SDS011;40968;52.342;5.528;2023-08-07T11:25:05;9.13;;;2.40;;
43160;SDS011;40968;52.342;5.528;2023-08-07T11:27:37;12.50;;;2.50;;
43160;SDS011;40968;52.342;5.528;2023-08-07T11:30:04;8.77;;;3.10;;
43160;SDS011;40968;52.342;5.528;2023-08-07T11:32:31;10.52;;;2.17;;
43160;SDS011;40968;52.342;5.528;2023-08-07T11:34:59;7.57;;;1.45;;
43160;SDS011;40968;52.342;5.528;2023-08-07T11:37:28;4.15;;;1.70;;
43160;SDS011;40968;52.342;5.528;2023-08-07T11:39:59;12.68;;;1.67;;
43160;SDS011;40968;52.342;5.528;2023-08-07T11:42:27;8.63;;;1.83;;
43160;SDS011;40968;52.342;5.528;2023-08-07T11:44:54;9.52;;;2.00;;
43160;SDS011;40968;52.342;5.528;2023-08-07T11:47:20;8.23;;;2.15;;
43160;SDS011;40968;52.342;5.528;2023-08-07T11:49:47;7.13;;;1.90;;
43160;SDS011;40968;52.342;5.528;2023-08-07T11:52:16;5.05;;;1.50;;
43160;SDS011;40968;52.342;5.528;2023-08-07T11:54:45;7.55;;;1.85;;
43160;SDS011;40968;52.342;5.528;2023-08-07T11:57:17;4.00;;;1.60;;
43160;SDS011;40968;52.342;5.528;2023-08-07T11:59:47;9.15;;;2.22;;
43160;SDS011;40968;52.342;5.528;2023-08-07T12:02:14;5.38;;;1.88;;
43160;SDS011;40968;52.342;5.528;2023-08-07T12:04:41;6.25;;;2.13;;
43160;SDS011;40968;52.342;5.528;2023-08-07T12:07:08;5.22;;;1.58;;
43160;SDS011;40968;52.342;5.528;2023-08-07T12:09:37;4.20;;;1.65;;
43160;SDS011;40968;52.342;5.528;2023-08-07T12:12:05;5.82;;;1.67;;
43160;SDS011;40968;52.342;5.528;2023-08-07T12:14:32;8.55;;;2.03;;
43160;SDS011;40968;52.342;5.528;2023-08-07T12:17:00;6.03;;;1.38;;
43160;SDS011;40968;52.342;5.528;2023-08-07T12:19:35;7.30;;;2.13;;
43160;SDS011;40968;52.342;5.528;2023-08-07T12:22:02;8.93;;;1.95;;
43160;SDS011;40968;52.342;5.528;2023-08-07T12:24:29;14.13;;;2.90;;
43160;SDS011;40968;52.342;5.528;2023-08-07T12:26:57;8.50;;;2.20;;
43160;SDS011;40968;52.342;5.528;2023-08-07T12:29:23;17.48;;;2.70;;
43160;SDS011;40968;52.342;5.528;2023-08-07T12:31:54;9.43;;;2.10;;
43160;SDS011;40968;52.342;5.528;2023-08-07T12:34:20;8.02;;;1.90;;
43160;SDS011;40968;52.342;5.528;2023-08-07T12:36:47;11.40;;;2.10;;
43160;SDS011;40968;52.342;5.528;2023-08-07T12:39:14;7.55;;;1.85;;
43160;SDS011;40968;52.342;5.528;2023-08-07T12:41:41;6.25;;;1.73;;
43160;SDS011;40968;52.342;5.528;2023-08-07T12:44:09;5.05;;;1.63;;
43160;SDS011;40968;52.342;5.528;2023-08-07T12:46:37;3.95;;;1.70;;
43160;SDS011;40968;52.342;5.528;2023-08-07T12:49:05;6.55;;;1.90;;
43160;SDS011;40968;52.342;5.528;2023-08-07T12:51:34;7.13;;;1.88;;
43160;SDS011;40968;52.342;5.528;2023-08-07T12:54:01;10.43;;;1.75;;
43160;SDS011;40968;52.342;5.528;2023-08-07T12:56:27;7.28;;;2.08;;
43160;SDS011;40968;52.342;5.528;2023-08-07T12:58:54;5.53;;;1.65;;
43160;SDS011;40968;52.342;5.528;2023-08-07T13:01:22;7.38;;;1.70;;
43160;SDS011;40968;52.342;5.528;2023-08-07T13:03:49;6.32;;;1.67;;
43160;SDS011;40968;52.342;5.528;2023-08-07T13:06:15;5.60;;;1.80;;
43160;SDS011;40968;52.342;5.528;2023-08-07T13:08:42;7.15;;;1.70;;
43160;SDS011;40968;52.342;5.528;2023-08-07T13:11:11;7.75;;;1.75;;
43160;SDS011;40968;52.342;5.528;2023-08-07T13:13:37;5.80;;;1.85;;
43160;SDS011;40968;52.342;5.528;2023-08-07T13:16:04;5.82;;;1.60;;
43160;SDS011;40968;52.342;5.528;2023-08-07T13:18:32;4.88;;;1.98;;
43160;SDS011;40968;52.342;5.528;2023-08-07T13:20:59;6.63;;;1.80;;
43160;SDS011;40968;52.342;5.528;2023-08-07T13:23:25;4.18;;;1.40;;
43160;SDS011;40968;52.342;5.528;2023-08-07T13:25:52;3.95;;;1.52;;
43160;SDS011;40968;52.342;5.528;2023-08-07T13:28:18;4.22;;;1.80;;
43160;SDS011;40968;52.342;5.528;2023-08-07T13:30:45;4.13;;;1.63;;
43160;SDS011;40968;52.342;5.528;2023-08-07T13:33:12;5.88;;;1.75;;
43160;SDS011;40968;52.342;5.528;2023-08-07T13:35:40;6.93;;;1.73;;
43160;SDS011;40968;52.342;5.528;2023-08-07T13:38:06;11.32;;;1.95;;
43160;SDS011;40968;52.342;5.528;2023-08-07T13:40:35;4.43;;;1.77;;
43160;SDS011;40968;52.342;5.528;2023-08-07T13:43:02;9.27;;;2.08;;
43160;SDS011;40968;52.342;5.528;2023-08-07T13:45:32;7.05;;;1.40;;
43160;SDS011;40968;52.342;5.528;2023-08-07T13:47:59;5.97;;;1.50;;
43160;SDS011;40968;52.342;5.528;2023-08-07T13:50:25;6.75;;;1.70;;
43160;SDS011;40968;52.342;5.528;2023-08-07T13:52:53;9.65;;;1.70;;
43160;SDS011;40968;52.342;5.528;2023-08-07T13:55:20;4.60;;;1.80;;
43160;SDS011;40968;52.342;5.528;2023-08-07T13:57:47;6.75;;;1.40;;
43160;SDS011;40968;52.342;5.528;2023-08-07T14:00:13;4.72;;;1.30;;
43160;SDS011;40968;52.342;5.528;2023-08-07T14:02:40;8.77;;;1.75;;
43160;SDS011;40968;52.342;5.528;2023-08-07T14:05:07;7.82;;;1.70;;
43160;SDS011;40968;52.342;5.528;2023-08-07T14:07:34;9.70;;;1.85;;
43160;SDS011;40968;52.342;5.528;2023-08-07T14:10:02;6.50;;;1.70;;
43160;SDS011;40968;52.342;5.528;2023-08-07T14:12:29;7.28;;;1.83;;
43160;SDS011;40968;52.342;5.528;2023-08-07T14:14:56;6.75;;;2.22;;
43160;SDS011;40968;52.342;5.528;2023-08-07T14:17:22;15.27;;;2.13;;
43160;SDS011;40968;52.342;5.528;2023-08-07T14:19:49;6.53;;;1.60;;
43160;SDS011;40968;52.342;5.528;2023-08-07T14:22:16;7.00;;;1.73;;
43160;SDS011;40968;52.342;5.528;2023-08-07T14:24:42;5.85;;;1.77;;
43160;SDS011;40968;52.342;5.528;2023-08-07T14:27:10;7.22;;;1.77;;
43160;SDS011;40968;52.342;5.528;2023-08-07T14:29:37;6.60;;;1.40;;
43160;SDS011;40968;52.342;5.528;2023-08-07T14:32:04;11.30;;;1.67;;
43160;SDS011;40968;52.342;5.528;2023-08-07T14:34:31;7.95;;;1.50;;
43160;SDS011;40968;52.342;5.528;2023-08-07T14:36:57;9.07;;;1.52;;
43160;SDS011;40968;52.342;5.528;2023-08-07T14:39:24;5.82;;;1.55;;
43160;SDS011;40968;52.342;5.528;2023-08-07T14:41:51;13.80;;;2.10;;
43160;SDS011;40968;52.342;5.528;2023-08-07T14:44:21;6.30;;;1.50;;